sensor_id;sensor_type;location;lat;lon;timestamp;pressure;altitude;pressure_sealevel;temperature;humidity
18858;BME280;9558;50.178;8.370;2024-03-08T00:00:50;98272.94;;;3.23;85.99
18858;BME280;9558;50.178;8.370;2024-03-08T00:03:37;98276.41;;;3.22;85.57
18858;BME280;9558;50.178;8.370;2024-03-08T00:06:26;98273.84;;;3.22;84.63
18858;BME280;9558;50.178;8.370;2024-03-08T00:09:14;98266.00;;;3.14;85.00
18858;BME280;9558;50.178;8.370;2024-03-08T00:12:01;98269.25;;;3.16;85.37
18858;BME280;9558;50.178;8.370;2024-03-08T00:14:48;98269.38;;;3.15;85.27
18858;BME280;9558;50.178;8.370;2024-03-08T00:17:35;98258.59;;;3.11;85.43
18858;BME280;9558;50.178;8.370;2024-03-08T00:20:22;98263.44;;;3.14;85.65
18858;BME280;9558;50.178;8.370;2024-03-08T00:23:09;98265.88;;;3.16;85.76
18858;BME280;9558;50.178;8.370;2024-03-08T00:25:57;98259.50;;;3.10;86.01
18858;BME280;9558;50.178;8.370;2024-03-08T00:28:44;98256.66;;;3.03;85.39
18858;BME280;9558;50.178;8.370;2024-03-08T00:31:31;98262.81;;;3.01;86.86
18858;BME280;9558;50.178;8.370;2024-03-08T00:34:18;98245.38;;;3.06;85.34
18858;BME280;9558;50.178;8.370;2024-03-08T00:37:05;98247.50;;;3.01;87.21
18858;BME280;9558;50.178;8.370;2024-03-08T00:39:52;98241.56;;;3.00;87.18
18858;BME280;9558;50.178;8.370;2024-03-08T00:42:40;98248.78;;;2.95;86.42
18858;BME280;9558;50.178;8.370;2024-03-08T00:45:29;98245.56;;;2.93;87.52
18858;BME280;9558;50.178;8.370;2024-03-08T00:48:16;98240.47;;;2.93;86.65
18858;BME280;9558;50.178;8.370;2024-03-08T00:51:03;98241.75;;;2.87;86.78
18858;BME280;9558;50.178;8.370;2024-03-08T00:53:50;98241.50;;;2.90;86.60
18858;BME280;9558;50.178;8.370;2024-03-08T00:56:37;98239.69;;;2.81;87.00
18858;BME280;9558;50.178;8.370;2024-03-08T00:59:26;98235.28;;;2.83;87.47
18858;BME280;9558;50.178;8.370;2024-03-08T01:02:13;98221.72;;;2.71;88.20
18858;BME280;9558;50.178;8.370;2024-03-08T01:04:59;98224.16;;;2.73;87.91
18858;BME280;9558;50.178;8.370;2024-03-08T01:07:46;98208.53;;;2.66;88.01
18858;BME280;9558;50.178;8.370;2024-03-08T01:10:33;98210.25;;;2.66;88.63
18858;BME280;9558;50.178;8.370;2024-03-08T01:13:20;98210.94;;;2.68;87.41
18858;BME280;9558;50.178;8.370;2024-03-08T01:16:08;98215.25;;;2.67;88.17
18858;BME280;9558;50.178;8.370;2024-03-08T01:18:55;98197.19;;;2.59;87.56
18858;BME280;9558;50.178;8.370;2024-03-08T01:21:42;98199.59;;;2.61;88.57
18858;BME280;9558;50.178;8.370;2024-03-08T01:24:29;98197.06;;;2.61;88.02
18858;BME280;9558;50.178;8.370;2024-03-08T01:27:16;98196.59;;;2.55;88.30
18858;BME280;9558;50.178;8.370;2024-03-08T01:30:03;98198.22;;;2.56;88.59
18858;BME280;9558;50.178;8.370;2024-03-08T01:32:52;98187.34;;;2.54;88.40
18858;BME280;9558;50.178;8.370;2024-03-08T01:35:39;98181.97;;;2.57;87.99
18858;BME280;9558;50.178;8.370;2024-03-08T01:38:27;98185.31;;;2.58;88.37
18858;BME280;9558;50.178;8.370;2024-03-08T01:41:14;98180.47;;;2.55;88.75
18858;BME280;9558;50.178;8.370;2024-03-08T01:44:03;98173.88;;;2.52;89.55
18858;BME280;9558;50.178;8.370;2024-03-08T01:46:53;98164.81;;;2.48;89.65
18858;BME280;9558;50.178;8.370;2024-03-08T01:49:41;98178.28;;;2.50;89.08
18858;BME280;9558;50.178;8.370;2024-03-08T01:52:29;98172.47;;;2.48;89.17
18858;BME280;9558;50.178;8.370;2024-03-08T01:55:17;98173.19;;;2.50;88.82
18858;BME280;9558;50.178;8.370;2024-03-08T01:58:04;98170.97;;;2.46;89.10
18858;BME280;9558;50.178;8.370;2024-03-08T02:00:52;98165.06;;;2.45;87.99
18858;BME280;9558;50.178;8.370;2024-03-08T02:03:40;98163.31;;;2.46;88.23
18858;BME280;9558;50.178;8.370;2024-03-08T02:06:30;98154.06;;;2.45;87.66
18858;BME280;9558;50.178;8.370;2024-03-08T02:09:17;98160.88;;;2.44;87.74
18858;BME280;9558;50.178;8.370;2024-03-08T02:12:04;98156.75;;;2.43;88.01
18858;BME280;9558;50.178;8.370;2024-03-08T02:14:53;98147.56;;;2.40;88.20
18858;BME280;9558;50.178;8.370;2024-03-08T02:17:41;98156.88;;;2.41;88.13
18858;BME280;9558;50.178;8.370;2024-03-08T02:20:30;98152.09;;;2.37;88.46
18858;BME280;9558;50.178;8.370;2024-03-08T02:23:17;98148.03;;;2.34;88.63
18858;BME280;9558;50.178;8.370;2024-03-08T02:26:05;98147.50;;;2.31;88.11
18858;BME280;9558;50.178;8.370;2024-03-08T02:28:53;98151.22;;;2.27;88.69
18858;BME280;9558;50.178;8.370;2024-03-08T02:31:39;98139.38;;;2.25;89.71
18858;BME280;9558;50.178;8.370;2024-03-08T02:34:27;98133.03;;;2.20;90.41
18858;BME280;9558;50.178;8.370;2024-03-08T02:37:15;98131.56;;;2.17;89.58
18858;BME280;9558;50.178;8.370;2024-03-08T02:40:02;98125.63;;;2.17;90.35
18858;BME280;9558;50.178;8.370;2024-03-08T02:42:51;98124.94;;;2.15;90.11
18858;BME280;9558;50.178;8.370;2024-03-08T02:45:38;98123.97;;;2.16;89.31
18858;BME280;9558;50.178;8.370;2024-03-08T02:48:25;98123.91;;;2.17;89.47
18858;BME280;9558;50.178;8.370;2024-03-08T02:51:12;98122.94;;;2.18;89.58
18858;BME280;9558;50.178;8.370;2024-03-08T02:54:00;98116.31;;;2.16;90.43
18858;BME280;9558;50.178;8.370;2024-03-08T02:56:47;98113.22;;;2.12;90.01
18858;BME280;9558;50.178;8.370;2024-03-08T02:59:36;98114.84;;;2.13;89.98
18858;BME280;9558;50.178;8.370;2024-03-08T03:02:25;98112.66;;;2.08;90.99
18858;BME280;9558;50.178;8.370;2024-03-08T03:05:13;98107.53;;;2.08;90.47
18858;BME280;9558;50.178;8.370;2024-03-08T03:08:00;98113.72;;;2.06;90.05
18858;BME280;9558;50.178;8.370;2024-03-08T03:10:48;98107.50;;;1.99;92.53
18858;BME280;9558;50.178;8.370;2024-03-08T03:13:35;98103.19;;;1.99;91.68
18858;BME280;9558;50.178;8.370;2024-03-08T03:16:22;98101.00;;;1.95;91.26
18858;BME280;9558;50.178;8.370;2024-03-08T03:19:09;98098.44;;;1.95;91.21
18858;BME280;9558;50.178;8.370;2024-03-08T03:21:56;98094.53;;;1.90;91.32
18858;BME280;9558;50.178;8.370;2024-03-08T03:24:43;98093.16;;;1.86;92.91
18858;BME280;9558;50.178;8.370;2024-03-08T03:27:33;98087.78;;;1.89;92.32
18858;BME280;9558;50.178;8.370;2024-03-08T03:30:20;98088.16;;;1.85;92.80
18858;BME280;9558;50.178;8.370;2024-03-08T03:33:07;98095.94;;;1.83;93.56
18858;BME280;9558;50.178;8.370;2024-03-08T03:35:55;98093.38;;;1.83;92.75
18858;BME280;9558;50.178;8.370;2024-03-08T03:38:43;98093.16;;;1.86;92.28
18858;BME280;9558;50.178;8.370;2024-03-08T03:41:29;98084.56;;;1.87;92.51
18858;BME280;9558;50.178;8.370;2024-03-08T03:44:18;98079.94;;;1.81;93.79
18858;BME280;9558;50.178;8.370;2024-03-08T03:47:05;98086.09;;;1.79;94.29
18858;BME280;9558;50.178;8.370;2024-03-08T03:49:52;98089.22;;;1.82;94.41
18858;BME280;9558;50.178;8.370;2024-03-08T03:52:39;98090.63;;;1.75;94.43
18858;BME280;9558;50.178;8.370;2024-03-08T03:55:27;98089.81;;;1.75;94.96
18858;BME280;9558;50.178;8.370;2024-03-08T03:58:15;98082.06;;;1.76;95.48
18858;BME280;9558;50.178;8.370;2024-03-08T04:01:04;98085.53;;;1.75;94.73
18858;BME280;9558;50.178;8.370;2024-03-08T04:03:51;98075.31;;;1.75;94.88
18858;BME280;9558;50.178;8.370;2024-03-08T04:06:38;98081.34;;;1.74;94.88
18858;BME280;9558;50.178;8.370;2024-03-08T04:09:25;98081.94;;;1.78;94.46
18858;BME280;9558;50.178;8.370;2024-03-08T04:12:12;98077.06;;;1.75;94.55
18858;BME280;9558;50.178;8.370;2024-03-08T04:15:01;98075.44;;;1.73;95.22
18858;BME280;9558;50.178;8.370;2024-03-08T04:17:49;98082.06;;;1.76;94.57
18858;BME280;9558;50.178;8.370;2024-03-08T04:20:36;98080.66;;;1.72;95.14
18858;BME280;9558;50.178;8.370;2024-03-08T04:23:25;98077.41;;;1.70;94.94
18858;BME280;9558;50.178;8.370;2024-03-08T04:26:14;98065.59;;;1.69;95.25
18858;BME280;9558;50.178;8.370;2024-03-08T04:29:01;98075.56;;;1.72;95.63
18858;BME280;9558;50.178;8.370;2024-03-08T04:31:48;98064.78;;;1.68;95.94
18858;BME280;9558;50.178;8.370;2024-03-08T04:34:37;98065.38;;;1.72;94.94
18858;BME280;9558;50.178;8.370;2024-03-08T04:37:24;98056.19;;;1.69;95.43
18858;BME280;9558;50.178;8.370;2024-03-08T04:40:11;98063.97;;;1.68;95.66
18858;BME280;9558;50.178;8.370;2024-03-08T04:42:58;98061.44;;;1.68;96.04
18858;BME280;9558;50.178;8.370;2024-03-08T04:45:46;98058.28;;;1.64;96.46
18858;BME280;9558;50.178;8.370;2024-03-08T04:48:34;98056.13;;;1.60;96.93
18858;BME280;9558;50.178;8.370;2024-03-08T04:51:23;98058.41;;;1.63;95.94
18858;BME280;9558;50.178;8.370;2024-03-08T04:54:10;98054.94;;;1.64;95.73
18858;BME280;9558;50.178;8.370;2024-03-08T04:56:57;98049.28;;;1.60;95.94
18858;BME280;9558;50.178;8.370;2024-03-08T04:59:45;98047.31;;;1.52;98.14
18858;BME280;9558;50.178;8.370;2024-03-08T05:02:32;98049.88;;;1.52;98.21
18858;BME280;9558;50.178;8.370;2024-03-08T05:05:22;98038.31;;;1.48;98.04
18858;BME280;9558;50.178;8.370;2024-03-08T05:08:10;98037.38;;;1.49;97.54
18858;BME280;9558;50.178;8.370;2024-03-08T05:10:57;98043.16;;;1.51;97.55
18858;BME280;9558;50.178;8.370;2024-03-08T05:13:44;98040.84;;;1.48;97.74
18858;BME280;9558;50.178;8.370;2024-03-08T05:16:31;98038.31;;;1.48;97.76
18858;BME280;9558;50.178;8.370;2024-03-08T05:19:19;98046.91;;;1.47;97.50
18858;BME280;9558;50.178;8.370;2024-03-08T05:22:06;98038.53;;;1.45;98.12
18858;BME280;9558;50.178;8.370;2024-03-08T05:24:55;98039.13;;;1.49;97.29
18858;BME280;9558;50.178;8.370;2024-03-08T05:27:42;98033.69;;;1.42;98.82
18858;BME280;9558;50.178;8.370;2024-03-08T05:30:29;98044.44;;;1.46;98.54
18858;BME280;9558;50.178;8.370;2024-03-08T05:33:17;98033.69;;;1.42;99.40
18858;BME280;9558;50.178;8.370;2024-03-08T05:36:05;98036.25;;;1.42;98.84
18858;BME280;9558;50.178;8.370;2024-03-08T05:38:53;98042.00;;;1.44;98.13
18858;BME280;9558;50.178;8.370;2024-03-08T05:41:41;98041.34;;;1.42;98.76
18858;BME280;9558;50.178;8.370;2024-03-08T05:44:28;98040.66;;;1.40;99.04
18858;BME280;9558;50.178;8.370;2024-03-08T05:47:16;98038.13;;;1.40;99.35
18858;BME280;9558;50.178;8.370;2024-03-08T05:50:05;98032.88;;;1.42;98.85
18858;BME280;9558;50.178;8.370;2024-03-08T05:52:53;98034.25;;;1.46;98.58
18858;BME280;9558;50.178;8.370;2024-03-08T05:55:41;98033.09;;;1.38;100.00
18858;BME280;9558;50.178;8.370;2024-03-08T05:58:29;98027.53;;;1.45;98.83
18858;BME280;9558;50.178;8.370;2024-03-08T06:01:17;98020.34;;;1.38;99.56
18858;BME280;9558;50.178;8.370;2024-03-08T06:04:04;98026.97;;;1.41;99.37
18858;BME280;9558;50.178;8.370;2024-03-08T06:06:51;98030.22;;;1.43;98.99
18858;BME280;9558;50.178;8.370;2024-03-08T06:09:41;98024.53;;;1.40;100.00
18858;BME280;9558;50.178;8.370;2024-03-08T06:12:30;98021.88;;;1.41;99.30
18858;BME280;9558;50.178;8.370;2024-03-08T06:15:24;98020.25;;;1.40;100.00
18858;BME280;9558;50.178;8.370;2024-03-08T06:18:11;98018.84;;;1.47;100.00
18858;BME280;9558;50.178;8.370;2024-03-08T06:20:58;98028.56;;;1.53;99.59
18858;BME280;9558;50.178;8.370;2024-03-08T06:23:45;98019.53;;;1.49;100.00
18858;BME280;9558;50.178;8.370;2024-03-08T06:26:31;98026.00;;;1.53;99.84
18858;BME280;9558;50.178;8.370;2024-03-08T06:29:19;98023.66;;;1.62;100.00
18858;BME280;9558;50.178;8.370;2024-03-08T06:32:08;98026.88;;;1.64;99.59
18858;BME280;9558;50.178;8.370;2024-03-08T06:34:55;98017.38;;;1.66;98.79
18858;BME280;9558;50.178;8.370;2024-03-08T06:37:42;98012.84;;;1.69;98.49
18858;BME280;9558;50.178;8.370;2024-03-08T06:40:30;98014.47;;;1.70;98.61
18858;BME280;9558;50.178;8.370;2024-03-08T06:43:16;98015.97;;;1.73;99.19
18858;BME280;9558;50.178;8.370;2024-03-08T06:46:04;98010.75;;;1.75;99.32
18858;BME280;9558;50.178;8.370;2024-03-08T06:48:52;98012.13;;;1.79;99.94
18858;BME280;9558;50.178;8.370;2024-03-08T06:51:39;98007.44;;;1.84;98.19
18858;BME280;9558;50.178;8.370;2024-03-08T06:54:26;98006.75;;;1.82;98.96
18858;BME280;9558;50.178;8.370;2024-03-08T06:57:13;98011.03;;;1.81;99.05
18858;BME280;9558;50.178;8.370;2024-03-08T07:00:02;98007.44;;;1.84;99.41
18858;BME280;9558;50.178;8.370;2024-03-08T07:02:50;98004.50;;;1.88;98.87
18858;BME280;9558;50.178;8.370;2024-03-08T07:05:40;98000.22;;;1.89;99.39
18858;BME280;9558;50.178;8.370;2024-03-08T07:08:27;98000.78;;;1.93;98.90
18858;BME280;9558;50.178;8.370;2024-03-08T07:11:15;97993.97;;;2.03;97.63
18858;BME280;9558;50.178;8.370;2024-03-08T07:14:04;98001.56;;;2.14;97.87
18858;BME280;9558;50.178;8.370;2024-03-08T07:16:52;97997.09;;;2.28;97.70
18858;BME280;9558;50.178;8.370;2024-03-08T07:19:39;97999.56;;;2.39;96.53
18858;BME280;9558;50.178;8.370;2024-03-08T07:22:27;98000.59;;;2.57;95.82
18858;BME280;9558;50.178;8.370;2024-03-08T07:25:14;97996.34;;;2.68;93.22
18858;BME280;9558;50.178;8.370;2024-03-08T07:28:06;97999.72;;;2.78;93.63
18858;BME280;9558;50.178;8.370;2024-03-08T07:30:53;97994.38;;;2.91;92.69
18858;BME280;9558;50.178;8.370;2024-03-08T07:33:53;97990.50;;;3.06;93.22
18858;BME280;9558;50.178;8.370;2024-03-08T07:36:40;97986.47;;;3.04;91.72
18858;BME280;9558;50.178;8.370;2024-03-08T07:39:29;97992.66;;;3.11;91.86
18858;BME280;9558;50.178;8.370;2024-03-08T07:42:16;97984.22;;;3.20;90.75
18858;BME280;9558;50.178;8.370;2024-03-08T07:45:04;97985.16;;;3.19;90.28
18858;BME280;9558;50.178;8.370;2024-03-08T07:47:53;97981.13;;;3.66;88.66
18858;BME280;9558;50.178;8.370;2024-03-08T07:50:41;97982.84;;;4.52;87.09
18858;BME280;9558;50.178;8.370;2024-03-08T07:53:28;97989.69;;;5.34;83.76
18858;BME280;9558;50.178;8.370;2024-03-08T07:56:17;97984.28;;;6.26;79.41
18858;BME280;9558;50.178;8.370;2024-03-08T07:59:04;97980.44;;;7.16;72.84
18858;BME280;9558;50.178;8.370;2024-03-08T08:01:52;97987.72;;;8.03;71.26
18858;BME280;9558;50.178;8.370;2024-03-08T08:04:39;97982.69;;;8.82;70.47
18858;BME280;9558;50.178;8.370;2024-03-08T08:07:27;97984.25;;;9.46;66.88
18858;BME280;9558;50.178;8.370;2024-03-08T08:10:14;97972.03;;;10.01;62.41
18858;BME280;9558;50.178;8.370;2024-03-08T08:13:05;97979.75;;;10.69;59.75
18858;BME280;9558;50.178;8.370;2024-03-08T08:15:52;97975.59;;;10.89;56.84
18858;BME280;9558;50.178;8.370;2024-03-08T08:18:39;97985.34;;;11.24;55.09
18858;BME280;9558;50.178;8.370;2024-03-08T08:21:26;97978.06;;;11.78;57.34
18858;BME280;9558;50.178;8.370;2024-03-08T08:24:13;97972.16;;;12.12;56.39
18858;BME280;9558;50.178;8.370;2024-03-08T08:27:00;97974.81;;;12.25;52.56
18858;BME280;9558;50.178;8.370;2024-03-08T08:29:49;97970.38;;;12.54;52.31
18858;BME280;9558;50.178;8.370;2024-03-08T08:32:36;97965.66;;;12.65;53.09
18858;BME280;9558;50.178;8.370;2024-03-08T08:35:24;97962.72;;;12.81;51.97
18858;BME280;9558;50.178;8.370;2024-03-08T08:38:11;97950.72;;;12.80;51.97
18858;BME280;9558;50.178;8.370;2024-03-08T08:40:59;97949.22;;;12.57;49.01
18858;BME280;9558;50.178;8.370;2024-03-08T08:43:48;97952.56;;;12.86;51.46
18858;BME280;9558;50.178;8.370;2024-03-08T08:46:36;97953.75;;;12.90;51.02
18858;BME280;9558;50.178;8.370;2024-03-08T08:49:23;97943.78;;;13.01;50.25
18858;BME280;9558;50.178;8.370;2024-03-08T08:52:13;97944.81;;;13.06;49.54
18858;BME280;9558;50.178;8.370;2024-03-08T08:55:02;97936.03;;;13.14;49.87
18858;BME280;9558;50.178;8.370;2024-03-08T08:57:50;97927.03;;;13.17;50.44
18858;BME280;9558;50.178;8.370;2024-03-08T09:00:38;97936.19;;;13.06;49.92
18858;BME280;9558;50.178;8.370;2024-03-08T09:03:27;97924.31;;;12.70;50.59
18858;BME280;9558;50.178;8.370;2024-03-08T09:06:14;97930.19;;;12.37;52.37
18858;BME280;9558;50.178;8.370;2024-03-08T09:09:02;97925.16;;;12.00;51.97
18858;BME280;9558;50.178;8.370;2024-03-08T09:11:50;97926.59;;;11.53;53.50
18858;BME280;9558;50.178;8.370;2024-03-08T09:14:39;97917.63;;;11.27;54.76
18858;BME280;9558;50.178;8.370;2024-03-08T09:17:27;97911.94;;;10.59;55.19
18858;BME280;9558;50.178;8.370;2024-03-08T09:20:15;97909.34;;;10.29;57.03
18858;BME280;9558;50.178;8.370;2024-03-08T09:23:03;97909.69;;;9.81;58.73
18858;BME280;9558;50.178;8.370;2024-03-08T09:25:50;97891.56;;;9.51;59.07
18858;BME280;9558;50.178;8.370;2024-03-08T09:28:37;97896.81;;;9.20;60.65
18858;BME280;9558;50.178;8.370;2024-03-08T09:31:24;97897.59;;;8.97;62.57
18858;BME280;9558;50.178;8.370;2024-03-08T09:34:12;97888.06;;;8.74;62.36
18858;BME280;9558;50.178;8.370;2024-03-08T09:37:01;97886.91;;;8.54;63.36
18858;BME280;9558;50.178;8.370;2024-03-08T09:39:49;97883.25;;;8.31;64.01
18858;BME280;9558;50.178;8.370;2024-03-08T09:42:37;97883.31;;;8.23;64.39
18858;BME280;9558;50.178;8.370;2024-03-08T09:45:24;97870.00;;;8.03;64.56
18858;BME280;9558;50.178;8.370;2024-03-08T09:48:13;97857.84;;;7.72;65.40
18858;BME280;9558;50.178;8.370;2024-03-08T09:51:00;97862.69;;;7.59;66.48
18858;BME280;9558;50.178;8.370;2024-03-08T09:53:49;97856.59;;;7.52;66.78
18858;BME280;9558;50.178;8.370;2024-03-08T09:56:40;97851.94;;;7.39;67.31
18858;BME280;9558;50.178;8.370;2024-03-08T09:59:30;97841.31;;;7.25;68.63
18858;BME280;9558;50.178;8.370;2024-03-08T10:02:29;97840.81;;;7.38;68.74
18858;BME280;9558;50.178;8.370;2024-03-08T10:05:18;97848.25;;;7.33;67.69
18858;BME280;9558;50.178;8.370;2024-03-08T10:08:06;97838.56;;;7.35;68.46
18858;BME280;9558;50.178;8.370;2024-03-08T10:10:55;97836.81;;;7.19;68.91
18858;BME280;9558;50.178;8.370;2024-03-08T10:13:44;97832.34;;;7.13;70.04
18858;BME280;9558;50.178;8.370;2024-03-08T10:16:31;97833.13;;;7.14;69.48
18858;BME280;9558;50.178;8.370;2024-03-08T10:19:19;97823.78;;;7.21;69.31
18858;BME280;9558;50.178;8.370;2024-03-08T10:22:14;97813.66;;;7.28;69.54
18858;BME280;9558;50.178;8.370;2024-03-08T10:25:02;97811.25;;;7.26;68.86
18858;BME280;9558;50.178;8.370;2024-03-08T10:27:52;97805.16;;;7.19;70.07
18858;BME280;9558;50.178;8.370;2024-03-08T10:30:47;97789.38;;;7.22;70.38
18858;BME280;9558;50.178;8.370;2024-03-08T10:33:34;97795.81;;;7.26;68.53
18858;BME280;9558;50.178;8.370;2024-03-08T10:36:23;97790.00;;;7.32;68.91
18858;BME280;9558;50.178;8.370;2024-03-08T10:39:17;97801.59;;;7.36;69.07
18858;BME280;9558;50.178;8.370;2024-03-08T10:42:11;97784.53;;;7.35;68.93
18858;BME280;9558;50.178;8.370;2024-03-08T10:45:09;97789.03;;;7.33;67.65
18858;BME280;9558;50.178;8.370;2024-03-08T10:48:15;97772.31;;;7.21;69.59
18858;BME280;9558;50.178;8.370;2024-03-08T10:51:11;97773.25;;;7.36;67.94
18858;BME280;9558;50.178;8.370;2024-03-08T10:53:59;97781.63;;;7.38;68.83
18858;BME280;9558;50.178;8.370;2024-03-08T10:56:48;97767.78;;;7.48;68.32
18858;BME280;9558;50.178;8.370;2024-03-08T10:59:36;97762.91;;;7.53;68.95
18858;BME280;9558;50.178;8.370;2024-03-08T11:02:26;97762.56;;;7.64;68.00
18858;BME280;9558;50.178;8.370;2024-03-08T11:05:31;97764.31;;;7.72;68.46
18858;BME280;9558;50.178;8.370;2024-03-08T11:08:20;97738.69;;;7.78;67.43
18858;BME280;9558;50.178;8.370;2024-03-08T11:11:24;97743.59;;;7.96;67.56
18858;BME280;9558;50.178;8.370;2024-03-08T11:14:42;97746.94;;;8.05;68.16
18858;BME280;9558;50.178;8.370;2024-03-08T11:17:47;97742.44;;;8.07;67.89
18858;BME280;9558;50.178;8.370;2024-03-08T11:20:34;97731.88;;;8.17;66.78
18858;BME280;9558;50.178;8.370;2024-03-08T11:23:23;97726.50;;;8.27;65.44
18858;BME280;9558;50.178;8.370;2024-03-08T11:26:18;97741.97;;;8.27;65.95
18858;BME280;9558;50.178;8.370;2024-03-08T11:29:34;97722.75;;;8.38;64.67
18858;BME280;9558;50.178;8.370;2024-03-08T11:32:27;97723.09;;;8.35;64.96
18858;BME280;9558;50.178;8.370;2024-03-08T11:35:20;97722.22;;;8.42;65.66
18858;BME280;9558;50.178;8.370;2024-03-08T11:38:08;97721.25;;;8.43;64.92
18858;BME280;9558;50.178;8.370;2024-03-08T11:40:57;97716.38;;;8.48;63.86
18858;BME280;9558;50.178;8.370;2024-03-08T11:43:44;97718.66;;;8.43;63.17
18858;BME280;9558;50.178;8.370;2024-03-08T11:46:31;97714.97;;;8.46;62.91
18858;BME280;9558;50.178;8.370;2024-03-08T11:49:19;97715.78;;;8.46;62.48
18858;BME280;9558;50.178;8.370;2024-03-08T11:52:10;97697.22;;;8.43;62.75
18858;BME280;9558;50.178;8.370;2024-03-08T11:54:58;97706.91;;;8.41;61.56
18858;BME280;9558;50.178;8.370;2024-03-08T11:57:46;97694.56;;;8.36;63.09
18858;BME280;9558;50.178;8.370;2024-03-08T12:00:34;97687.09;;;8.41;62.49
18858;BME280;9558;50.178;8.370;2024-03-08T12:03:24;97690.31;;;8.43;62.72
18858;BME280;9558;50.178;8.370;2024-03-08T12:06:11;97679.66;;;8.46;62.84
18858;BME280;9558;50.178;8.370;2024-03-08T12:09:00;97674.44;;;8.55;63.66
18858;BME280;9558;50.178;8.370;2024-03-08T12:11:48;97686.13;;;8.65;62.65
18858;BME280;9558;50.178;8.370;2024-03-08T12:14:36;97684.19;;;8.82;63.29
18858;BME280;9558;50.178;8.370;2024-03-08T12:17:23;97679.94;;;8.90;62.47
18858;BME280;9558;50.178;8.370;2024-03-08T12:20:12;97673.88;;;8.82;60.73
18858;BME280;9558;50.178;8.370;2024-03-08T12:23:00;97683.47;;;8.89;61.79
18858;BME280;9558;50.178;8.370;2024-03-08T12:25:49;97671.31;;;8.97;63.41
18858;BME280;9558;50.178;8.370;2024-03-08T12:28:36;97675.50;;;9.13;63.60
18858;BME280;9558;50.178;8.370;2024-03-08T12:31:23;97664.53;;;9.11;60.11
18858;BME280;9558;50.178;8.370;2024-03-08T12:34:11;97673.53;;;9.15;60.98
18858;BME280;9558;50.178;8.370;2024-03-08T12:36:59;97652.28;;;9.13;60.40
18858;BME280;9558;50.178;8.370;2024-03-08T12:39:46;97649.44;;;9.23;61.96
18858;BME280;9558;50.178;8.370;2024-03-08T12:42:35;97647.38;;;9.33;61.44
18858;BME280;9558;50.178;8.370;2024-03-08T12:45:22;97648.16;;;9.49;60.10
18858;BME280;9558;50.178;8.370;2024-03-08T12:48:13;97648.50;;;9.46;60.63
18858;BME280;9558;50.178;8.370;2024-03-08T12:51:01;97651.72;;;9.48;58.73
18858;BME280;9558;50.178;8.370;2024-03-08T12:53:48;97638.09;;;9.39;59.34
18858;BME280;9558;50.178;8.370;2024-03-08T12:56:41;97645.75;;;9.47;57.98
18858;BME280;9558;50.178;8.370;2024-03-08T12:59:29;97639.06;;;9.38;58.81
18858;BME280;9558;50.178;8.370;2024-03-08T13:02:16;97638.59;;;9.49;60.06
18858;BME280;9558;50.178;8.370;2024-03-08T13:05:03;97641.00;;;9.51;59.40
18858;BME280;9558;50.178;8.370;2024-03-08T13:07:51;97637.38;;;9.45;59.33
18858;BME280;9558;50.178;8.370;2024-03-08T13:10:39;97624.91;;;9.49;59.71
18858;BME280;9558;50.178;8.370;2024-03-08T13:13:28;97613.38;;;9.51;58.65
18858;BME280;9558;50.178;8.370;2024-03-08T13:16:17;97625.84;;;9.63;60.13
18858;BME280;9558;50.178;8.370;2024-03-08T13:19:04;97613.06;;;9.55;58.37
18858;BME280;9558;50.178;8.370;2024-03-08T13:21:51;97612.50;;;9.59;59.38
18858;BME280;9558;50.178;8.370;2024-03-08T13:24:39;97603.13;;;9.58;58.23
18858;BME280;9558;50.178;8.370;2024-03-08T13:27:27;97608.13;;;9.60;59.56
18858;BME280;9558;50.178;8.370;2024-03-08T13:30:14;97602.25;;;9.66;58.49
18858;BME280;9558;50.178;8.370;2024-03-08T13:33:05;97600.63;;;9.65;59.29
18858;BME280;9558;50.178;8.370;2024-03-08T13:35:52;97587.09;;;9.63;58.29
18858;BME280;9558;50.178;8.370;2024-03-08T13:38:41;97582.56;;;9.65;58.67
18858;BME280;9558;50.178;8.370;2024-03-08T13:41:29;97579.59;;;9.68;59.52
18858;BME280;9558;50.178;8.370;2024-03-08T13:44:16;97574.44;;;9.68;59.21
18858;BME280;9558;50.178;8.370;2024-03-08T13:47:04;97575.66;;;9.72;59.83
18858;BME280;9558;50.178;8.370;2024-03-08T13:49:54;97568.41;;;9.82;60.35
18858;BME280;9558;50.178;8.370;2024-03-08T13:52:41;97561.13;;;9.93;58.66
18858;BME280;9558;50.178;8.370;2024-03-08T13:55:29;97568.28;;;9.91;59.22
18858;BME280;9558;50.178;8.370;2024-03-08T13:58:16;97555.56;;;9.96;59.57
18858;BME280;9558;50.178;8.370;2024-03-08T14:01:04;97555.22;;;9.99;58.71
18858;BME280;9558;50.178;8.370;2024-03-08T14:03:57;97550.06;;;9.99;58.21
18858;BME280;9558;50.178;8.370;2024-03-08T14:06:46;97548.69;;;10.03;58.21
18858;BME280;9558;50.178;8.370;2024-03-08T14:09:34;97537.75;;;10.01;59.70
18858;BME280;9558;50.178;8.370;2024-03-08T14:12:23;97538.97;;;10.05;58.83
18858;BME280;9558;50.178;8.370;2024-03-08T14:15:12;97527.16;;;9.96;58.71
18858;BME280;9558;50.178;8.370;2024-03-08T14:17:59;97535.28;;;9.93;59.81
18858;BME280;9558;50.178;8.370;2024-03-08T14:20:47;97529.72;;;9.96;58.88
18858;BME280;9558;50.178;8.370;2024-03-08T14:23:35;97514.72;;;10.06;59.28
18858;BME280;9558;50.178;8.370;2024-03-08T14:26:22;97500.75;;;10.00;58.29
18858;BME280;9558;50.178;8.370;2024-03-08T14:29:18;97503.03;;;10.10;60.21
18858;BME280;9558;50.178;8.370;2024-03-08T14:32:19;97496.84;;;10.11;60.79
18858;BME280;9558;50.178;8.370;2024-03-08T14:35:08;97496.09;;;10.17;59.60
18858;BME280;9558;50.178;8.370;2024-03-08T14:37:57;97496.13;;;10.24;59.83
18858;BME280;9558;50.178;8.370;2024-03-08T14:40:46;97484.22;;;10.30;59.57
18858;BME280;9558;50.178;8.370;2024-03-08T14:43:33;97476.47;;;10.23;60.44
18858;BME280;9558;50.178;8.370;2024-03-08T14:46:20;97479.84;;;10.24;59.23
18858;BME280;9558;50.178;8.370;2024-03-08T14:49:08;97465.91;;;10.25;59.65
18858;BME280;9558;50.178;8.370;2024-03-08T14:51:55;97468.69;;;10.23;59.33
18858;BME280;9558;50.178;8.370;2024-03-08T14:54:43;97465.91;;;10.25;58.37
18858;BME280;9558;50.178;8.370;2024-03-08T14:57:42;97457.13;;;10.19;59.44
18858;BME280;9558;50.178;8.370;2024-03-08T15:00:31;97453.78;;;10.25;58.66
18858;BME280;9558;50.178;8.370;2024-03-08T15:03:20;97451.53;;;10.15;59.05
18858;BME280;9558;50.178;8.370;2024-03-08T15:06:10;97447.50;;;10.06;58.08
18858;BME280;9558;50.178;8.370;2024-03-08T15:08:57;97449.91;;;10.08;58.74
18858;BME280;9558;50.178;8.370;2024-03-08T15:11:45;97449.72;;;10.09;60.20
18858;BME280;9558;50.178;8.370;2024-03-08T15:14:39;97445.47;;;10.01;59.85